Time;durP1;ratioP1;P1;durP2;ratioP2;P2;SDS_P1;SDS_P2;PMS_P1;PMS_P2;Temp;Humidity;BMP_temperature;BMP_pressure;BME280_temperature;BME280_humidity;BME280_pressure;Samples;Min_cycle;Max_cycle;Signal;HPM_P1;HPM_P2
2022/03/03 00:01:22;;;;;;;52.47;34.17;;;;;;;2.88;83.02;95900.81;6298121;22;20018;-62
2022/03/03 00:03:48;;;;;;;56.58;36.50;;;;;;;2.78;84.32;95903.97;6298715;22;20006;-62
2022/03/03 00:06:13;;;;;;;68.25;43.47;;;;;;;2.74;83.99;95899.03;6299143;22;20484;-62
2022/03/03 00:08:38;;;;;;;77.25;45.40;;;;;;;2.68;84.98;95897.59;6299311;22;20010;-61
2022/03/03 00:11:04;;;;;;;75.68;45.83;;;;;;;2.67;83.81;95894.19;6298985;22;20368;-61
2022/03/03 00:13:29;;;;;;;70.70;43.28;;;;;;;2.67;84.53;95890.72;6272520;22;20011;-62
2022/03/03 00:15:55;;;;;;;59.30;37.15;;;;;;;2.61;84.30;95896.28;6272272;22;20438;-61
2022/03/03 00:18:20;;;;;;;56.97;37.00;;;;;;;2.58;84.95;95898.16;6299184;22;20011;-61
2022/03/03 00:20:45;;;;;;;56.67;35.25;;;;;;;2.56;85.19;95897.41;6299573;22;20079;-62
2022/03/03 00:23:11;;;;;;;47.97;32.45;;;;;;;2.53;85.30;95891.53;6298895;22;20004;-62
2022/03/03 00:25:36;;;;;;;48.90;33.58;;;;;;;2.51;85.05;95889.00;6299828;22;19999;-61
2022/03/03 00:28:03;;;;;;;50.03;33.50;;;;;;;2.43;85.39;95892.06;6299408;22;19999;-62
2022/03/03 00:30:29;;;;;;;50.60;30.92;;;;;;;2.39;85.29;95893.13;6299427;22;20406;-62
2022/03/03 00:32:54;;;;;;;50.95;32.05;;;;;;;2.42;84.87;95889.53;6299649;22;20015;-61
2022/03/03 00:35:19;;;;;;;44.67;31.08;;;;;;;2.40;85.19;95887.00;6299394;22;20079;-62
2022/03/03 00:37:45;;;;;;;42.30;28.73;;;;;;;2.38;84.60;95893.25;6299409;22;20441;-62
2022/03/03 00:40:10;;;;;;;42.28;28.30;;;;;;;2.40;84.88;95883.59;6299328;22;20435;-62
2022/03/03 00:42:36;;;;;;;40.65;28.25;;;;;;;2.38;84.80;95888.03;6299383;22;20060;-62
2022/03/03 00:45:02;;;;;;;34.28;23.27;;;;;;;2.36;85.70;95889.91;6298543;22;20011;-61
2022/03/03 00:47:28;;;;;;;27.10;19.90;;;;;;;2.33;85.38;95885.69;6271655;22;20470;-62
2022/03/03 00:49:53;;;;;;;24.48;17.58;;;;;;;2.33;86.28;95882.28;6299135;22;20007;-62
2022/03/03 00:52:18;;;;;;;22.42;15.25;;;;;;;2.37;85.46;95883.78;6298968;22;20344;-62
2022/03/03 00:54:44;;;;;;;17.17;13.05;;;;;;;2.42;84.72;95882.56;6299003;22;20608;-61
2022/03/03 00:57:09;;;;;;;18.25;13.77;;;;;;;2.49;85.12;95871.84;6298944;22;20004;-62
2022/03/03 00:59:34;;;;;;;22.02;14.57;;;;;;;2.51;84.66;95876.00;6299230;22;20015;-62
2022/03/03 01:02:00;;;;;;;21.50;17.65;;;;;;;2.58;83.74;95871.31;6299373;22;20000;-61
2022/03/03 01:04:25;;;;;;;23.75;20.75;;;;;;;2.58;84.01;95869.56;6299561;22;20000;-61
2022/03/03 01:06:51;;;;;;;27.33;22.70;;;;;;;2.53;84.89;95873.34;6299453;22;20468;-62
2022/03/03 01:09:16;;;;;;;32.38;22.48;;;;;;;2.53;85.49;95871.56;6298959;22;20431;-61
2022/03/03 01:11:41;;;;;;;28.05;20.48;;;;;;;2.56;85.78;95871.41;6299303;22;20083;-61
2022/03/03 01:14:07;;;;;;;26.65;19.50;;;;;;;2.57;85.26;95873.06;6299253;22;19999;-61
2022/03/03 01:16:33;;;;;;;19.67;17.02;;;;;;;2.60;84.99;95874.66;6299513;22;20431;-61
2022/03/03 01:18:59;;;;;;;22.65;18.13;;;;;;;2.65;85.15;95871.78;6298951;22;20011;-60
2022/03/03 01:21:24;;;;;;;22.20;18.80;;;;;;;2.71;84.90;95868.81;6298826;22;20441;-60
2022/03/03 01:23:49;;;;;;;27.00;19.10;;;;;;;2.75;85.53;95872.91;6299104;22;20027;-60
2022/03/03 01:26:15;;;;;;;30.67;21.63;;;;;;;2.75;84.94;95870.31;6299196;22;20006;-60
2022/03/03 01:28:40;;;;;;;32.97;20.60;;;;;;;2.76;84.66;95865.97;6299209;22;20386;-60
2022/03/03 01:31:06;;;;;;;33.13;22.13;;;;;;;2.79;83.80;95858.84;6299041;22;19999;-61
2022/03/03 01:33:31;;;;;;;49.38;27.75;;;;;;;2.78;83.88;95853.72;6299388;22;20380;-60
2022/03/03 01:35:56;;;;;;;31.63;20.77;;;;;;;2.80;85.00;95857.06;6299121;22;20020;-60
2022/03/03 01:38:22;;;;;;;26.77;20.58;;;;;;;2.81;84.19;95859.56;6299426;22;20058;-60
2022/03/03 01:40:47;;;;;;;30.00;19.20;;;;;;;2.77;85.71;95852.88;6299220;22;20008;-61
2022/03/03 01:43:12;;;;;;;27.27;19.90;;;;;;;2.74;85.42;95847.84;6271977;22;20014;-61
2022/03/03 01:45:39;;;;;;;36.63;23.58;;;;;;;2.76;84.63;95851.19;6298949;22;20007;-61
2022/03/03 01:48:04;;;;;;;23.48;18.00;;;;;;;2.77;84.85;95852.03;6298973;22;20031;-61
2022/03/03 01:50:30;;;;;;;26.33;19.58;;;;;;;2.75;85.05;95840.88;6299206;22;20431;-60
2022/03/03 01:52:55;;;;;;;26.90;18.38;;;;;;;2.72;85.50;95847.09;6299282;22;20007;-60
2022/03/03 01:55:21;;;;;;;28.27;17.80;;;;;;;2.63;85.63;95839.84;6299180;22;20074;-61
2022/03/03 01:57:51;;;;;;;19.92;16.13;;;;;;;2.61;86.14;95841.69;6299173;22;20010;-60
2022/03/03 02:00:17;;;;;;;23.60;16.55;;;;;;;2.61;85.97;95826.94;6299059;22;20083;-61
2022/03/03 02:02:44;;;;;;;19.05;14.65;;;;;;;2.64;85.85;95828.53;6298794;22;20004;-60
2022/03/03 02:05:09;;;;;;;19.00;14.57;;;;;;;2.58;85.86;95834.91;6298390;22;20000;-60
2022/03/03 02:07:35;;;;;;;23.55;16.63;;;;;;;2.56;86.29;95827.22;6299246;22;20082;-61
2022/03/03 02:10:02;;;;;;;24.77;17.75;;;;;;;2.48;85.87;95829.41;6271717;22;20022;-60
2022/03/03 02:12:27;;;;;;;26.23;18.15;;;;;;;2.49;85.63;95825.88;6298996;22;20000;-60
2022/03/03 02:14:52;;;;;;;25.08;17.83;;;;;;;2.51;85.88;95821.44;6299339;22;20006;-61
2022/03/03 02:17:18;;;;;;;28.45;18.73;;;;;;;2.49;86.71;95818.09;6299066;22;20004;-60
2022/03/03 02:19:44;;;;;;;30.30;20.65;;;;;;;2.46;86.88;95828.66;6299026;22;20015;-60
2022/03/03 02:22:10;;;;;;;39.97;23.25;;;;;;;2.51;86.72;95823.22;6298999;22;20575;-60
2022/03/03 02:24:39;;;;;;;36.78;22.15;;;;;;;2.49;86.63;95818.09;6299282;22;20078;-60
2022/03/03 02:27:05;;;;;;;38.13;21.35;;;;;;;2.46;87.16;95817.44;6299231;22;20003;-61
2022/03/03 02:29:31;;;;;;;38.05;22.35;;;;;;;2.48;87.16;95813.81;6299025;22;20083;-60
2022/03/03 02:31:58;;;;;;;37.45;22.77;;;;;;;2.48;86.67;95816.41;6299026;22;20006;-60
2022/03/03 02:34:23;;;;;;;36.30;23.30;;;;;;;2.50;86.83;95808.53;6299303;22;20004;-60
2022/03/03 02:36:49;;;;;;;41.97;23.55;;;;;;;2.49;88.10;95801.66;6298846;22;20100;-60
2022/03/03 02:39:15;;;;;;;37.20;21.92;;;;;;;2.46;87.60;95807.03;6298818;22;20011;-61
2022/03/03 02:41:40;;;;;;;39.88;23.35;;;;;;;2.44;87.03;95801.94;6299170;22;20007;-60
2022/03/03 02:44:06;;;;;;;38.90;21.63;;;;;;;2.46;86.81;95802.66;6298832;22;20443;-61
2022/03/03 02:46:31;;;;;;;28.63;19.20;;;;;;;2.47;86.54;95806.13;6299258;22;20015;-60
2022/03/03 02:48:57;;;;;;;29.95;19.98;;;;;;;2.48;87.14;95810.38;6299260;22;20026;-61
2022/03/03 02:51:24;;;;;;;28.17;18.80;;;;;;;2.45;86.98;95803.59;6299109;22;20023;-60
2022/03/03 02:53:50;;;;;;;32.58;19.63;;;;;;;2.46;86.49;95812.25;6299113;22;20355;-60
2022/03/03 02:56:15;;;;;;;28.85;19.98;;;;;;;2.46;86.78;95807.03;6299107;22;20007;-61
2022/03/03 02:58:41;;;;;;;29.08;19.17;;;;;;;2.42;87.12;95804.59;6299101;22;20358;-60
2022/03/03 03:01:09;;;;;;;27.63;19.80;;;;;;;2.44;87.99;95807.13;6298691;22;20031;-60
2022/03/03 03:03:35;;;;;;;26.75;17.45;;;;;;;2.45;87.41;95801.00;6299138;22;20007;-60
2022/03/03 03:06:01;;;;;;;27.48;17.80;;;;;;;2.48;87.86;95800.00;6298894;22;20003;-61
2022/03/03 03:08:26;;;;;;;25.55;17.95;;;;;;;2.48;87.30;95805.19;6298927;22;20004;-60
2022/03/03 03:10:51;;;;;;;24.98;16.73;;;;;;;2.47;87.06;95796.53;6298953;22;20015;-60
2022/03/03 03:13:17;;;;;;;30.58;18.05;;;;;;;2.42;86.93;95795.97;6298597;22;20086;-61
2022/03/03 03:15:45;;;;;;;27.38;18.23;;;;;;;2.39;87.37;95791.78;6299005;22;19999;-61
2022/03/03 03:18:17;;;;;;;22.80;17.92;;;;;;;2.36;87.76;95796.34;6298209;22;20008;-60
2022/03/03 03:20:44;;;;;;;25.95;17.35;;;;;;;2.35;87.90;95794.69;6299067;22;20022;-60
2022/03/03 03:23:13;;;;;;;26.55;17.48;;;;;;;2.38;87.24;95781.50;6298409;22;20506;-61
2022/03/03 03:25:39;;;;;;;22.67;16.10;;;;;;;2.41;86.89;95789.13;6297549;22;20006;-60
2022/03/03 03:28:05;;;;;;;26.88;16.40;;;;;;;2.45;86.21;95788.00;6298298;22;20458;-60
2022/03/03 03:30:31;;;;;;;22.73;16.73;;;;;;;2.48;86.10;95781.81;6299422;22;20014;-61
2022/03/03 03:32:57;;;;;;;24.85;16.52;;;;;;;2.51;85.97;95786.81;6300279;22;20003;-60
2022/03/03 03:35:23;;;;;;;30.33;17.45;;;;;;;2.47;86.78;95783.56;6300196;22;20418;-60
2022/03/03 03:37:48;;;;;;;22.83;15.90;;;;;;;2.39;87.82;95790.97;6299759;22;20004;-61
2022/03/03 03:40:14;;;;;;;20.98;16.15;;;;;;;2.36;88.10;95781.56;6300149;22;20395;-60
2022/03/03 03:42:39;;;;;;;20.60;14.85;;;;;;;2.39;87.86;95783.19;6300034;22;20431;-61
2022/03/03 03:45:05;;;;;;;23.45;14.60;;;;;;;2.40;87.61;95771.84;6299935;22;20011;-61
2022/03/03 03:47:31;;;;;;;22.55;15.27;;;;;;;2.40;87.51;95764.06;6300419;22;20003;-60
2022/03/03 03:49:58;;;;;;;19.77;15.05;;;;;;;2.42;87.20;95770.00;6300283;22;20011;-61
2022/03/03 03:52:23;;;;;;;19.30;15.85;;;;;;;2.47;86.68;95767.13;6299520;22;20014;-61
2022/03/03 03:54:48;;;;;;;19.08;14.95;;;;;;;2.45;87.50;95754.22;6300171;22;20396;-60
2022/03/03 03:57:14;;;;;;;19.95;14.77;;;;;;;2.43;87.34;95746.53;6299933;22;20447;-60
2022/03/03 03:59:39;;;;;;;15.57;13.57;;;;;;;2.40;87.37;95741.50;6299753;22;20007;-61
2022/03/03 04:02:04;;;;;;;22.13;17.20;;;;;;;2.39;88.30;95737.22;6299838;22;20007;-60
2022/03/03 04:04:30;;;;;;;22.00;17.42;;;;;;;2.35;88.76;95743.53;6299818;22;20079;-61
2022/03/03 04:06:56;;;;;;;17.30;14.23;;;;;;;2.32;88.94;95740.25;6299742;22;20062;-61
2022/03/03 04:09:21;;;;;;;22.13;14.95;;;;;;;2.31;88.41;95736.00;6299669;22;20025;-60
2022/03/03 04:11:46;;;;;;;20.98;14.10;;;;;;;2.28;88.39;95739.63;6299899;22;20017;-60
2022/03/03 04:14:12;;;;;;;17.20;15.18;;;;;;;2.24;89.23;95741.56;6299759;22;20082;-61
2022/03/03 04:16:37;;;;;;;17.92;13.63;;;;;;;2.25;89.57;95747.59;6299432;22;20000;-60
2022/03/03 04:19:03;;;;;;;16.83;14.48;;;;;;;2.25;88.26;95738.03;6299656;22;20033;-60
2022/03/03 04:21:31;;;;;;;18.23;15.23;;;;;;;2.27;87.81;95736.19;6299586;22;20010;-61
2022/03/03 04:23:57;;;;;;;27.20;18.42;;;;;;;2.21;88.82;95728.75;6300247;22;20007;-60
2022/03/03 04:26:22;;;;;;;21.63;16.23;;;;;;;2.16;88.85;95728.19;6299774;22;20074;-60
2022/03/03 04:28:48;;;;;;;21.50;17.10;;;;;;;2.19;87.71;95722.81;6300095;22;20053;-60
2022/03/03 04:31:13;;;;;;;21.02;14.93;;;;;;;2.21;88.10;95723.56;6301186;22;20068;-60
2022/03/03 04:33:38;;;;;;;15.90;12.70;;;;;;;2.19;88.04;95716.78;6301272;22;20059;-61
2022/03/03 04:36:05;;;;;;;14.52;12.10;;;;;;;2.19;87.66;95711.56;6301768;22;19999;-60
2022/03/03 04:38:30;;;;;;;14.57;12.75;;;;;;;2.10;88.23;95708.59;6301377;22;20078;-60
2022/03/03 04:40:55;;;;;;;12.80;11.27;;;;;;;2.11;89.02;95709.44;6301019;22;20808;-60
2022/03/03 04:43:21;;;;;;;12.93;11.43;;;;;;;2.07;89.89;95710.53;6300937;22;20007;-61
2022/03/03 04:45:46;;;;;;;12.95;10.77;;;;;;;2.10;89.21;95700.81;6301472;22;20004;-60
2022/03/03 04:48:12;;;;;;;11.93;9.70;;;;;;;2.12;89.35;95698.13;6301482;22;20014;-60
2022/03/03 04:50:37;;;;;;;16.10;10.00;;;;;;;2.11;89.71;95696.47;6300958;22;20403;-60
2022/03/03 04:53:03;;;;;;;11.82;10.63;;;;;;;2.12;89.92;95685.97;6301360;22;20007;-60
2022/03/03 04:55:28;;;;;;;10.80;9.68;;;;;;;2.13;89.97;95694.59;6301516;22;20034;-60
2022/03/03 04:57:54;;;;;;;13.88;10.32;;;;;;;2.12;90.15;95688.56;6301309;22;20039;-60
2022/03/03 05:00:19;;;;;;;13.65;9.85;;;;;;;2.18;88.78;95694.31;6301342;22;20453;-61
2022/03/03 05:02:45;;;;;;;12.73;10.13;;;;;;;2.24;88.07;95681.81;6301222;22;20031;-60
2022/03/03 05:05:10;;;;;;;14.07;11.32;;;;;;;2.24;88.80;95684.41;6301251;22;20003;-60
2022/03/03 05:07:35;;;;;;;11.65;10.05;;;;;;;2.20;89.48;95682.06;6301344;22;20003;-60
2022/03/03 05:10:02;;;;;;;11.93;10.35;;;;;;;2.17;89.35;95675.31;6301199;22;20011;-60
2022/03/03 05:12:27;;;;;;;13.60;9.57;;;;;;;2.20;88.94;95676.88;6301197;22;20112;-60
2022/03/03 05:14:53;;;;;;;13.75;10.50;;;;;;;2.23;88.23;95674.94;6301323;22;20036;-60
2022/03/03 05:17:19;;;;;;;11.38;9.48;;;;;;;2.23;88.97;95671.53;6301100;22;19999;-60
2022/03/03 05:19:44;;;;;;;12.10;10.13;;;;;;;2.26;88.71;95664.34;6301145;22;20405;-60
2022/03/03 05:22:10;;;;;;;14.27;11.57;;;;;;;2.26;89.14;95664.34;6301394;22;20010;-60
2022/03/03 05:24:38;;;;;;;11.27;9.98;;;;;;;2.23;89.04;95661.94;6301603;22;20014;-60
2022/03/03 05:27:04;;;;;;;16.17;10.50;;;;;;;2.18;90.35;95663.16;6273899;22;20007;-60
2022/03/03 05:29:29;;;;;;;12.45;11.15;;;;;;;2.16;90.23;95660.66;6301339;22;20014;-60
2022/03/03 05:31:57;;;;;;;12.10;10.80;;;;;;;2.12;90.17;95656.56;6300842;22;20003;-60
2022/03/03 05:34:23;;;;;;;11.50;9.93;;;;;;;2.16;89.90;95660.66;6301104;22;20004;-60
2022/03/03 05:36:48;;;;;;;16.50;11.00;;;;;;;2.19;90.20;95660.47;6301103;22;20623;-61
2022/03/03 05:39:15;;;;;;;12.32;11.15;;;;;;;2.25;89.44;95660.09;6300895;22;20011;-61
2022/03/03 05:41:41;;;;;;;11.88;10.63;;;;;;;2.29;88.58;95664.19;6301258;22;20003;-61
2022/03/03 05:44:11;;;;;;;11.63;10.27;;;;;;;2.25;90.40;95660.09;6300998;22;20456;-60
2022/03/03 05:46:37;;;;;;;12.25;10.48;;;;;;;2.23;89.93;95663.72;6300935;22;19999;-61
2022/03/03 05:49:02;;;;;;;13.88;10.95;;;;;;;2.23;90.04;95661.13;6301163;22;20492;-61
2022/03/03 05:51:27;;;;;;;15.98;10.77;;;;;;;2.19;90.96;95665.66;6301261;22;19999;-60
2022/03/03 05:53:53;;;;;;;11.30;10.02;;;;;;;2.18;90.45;95655.34;6301072;22;20068;-61
2022/03/03 05:56:21;;;;;;;12.75;11.35;;;;;;;2.17;90.37;95656.28;6300593;22;19999;-61
2022/03/03 05:58:51;;;;;;;12.23;10.18;;;;;;;2.17;90.42;95654.53;6300949;22;20007;-60
2022/03/03 06:01:18;;;;;;;11.35;9.88;;;;;;;2.17;90.53;95656.28;6301313;22;20014;-60
2022/03/03 06:03:46;;;;;;;13.00;10.15;;;;;;;2.15;90.86;95652.00;6301091;22;20038;-60
2022/03/03 06:06:16;;;;;;;14.98;11.40;;;;;;;2.17;90.09;95651.09;6301207;22;20087;-61
2022/03/03 06:08:51;;;;;;;13.77;12.00;;;;;;;2.21;89.45;95657.75;6300743;22;20079;-60
2022/03/03 06:11:20;;;;;;;11.15;9.82;;;;;;;2.24;89.29;95655.00;6300994;22;20060;-61
2022/03/03 06:13:47;;;;;;;14.15;10.13;;;;;;;2.23;89.41;95650.75;6300917;22;20053;-60
2022/03/03 06:16:18;;;;;;;15.93;10.73;;;;;;;2.17;90.94;95654.53;6300675;22;20082;-60
2022/03/03 06:18:46;;;;;;;10.98;9.85;;;;;;;2.12;90.86;95648.78;6300855;22;20007;-61
2022/03/03 06:21:12;;;;;;;16.98;13.70;;;;;;;2.06;90.93;95649.97;6300266;22;20086;-60
2022/03/03 06:23:38;;;;;;;15.05;13.32;;;;;;;2.08;91.02;95648.13;6300895;22;20455;-60
2022/03/03 06:26:06;;;;;;;15.15;12.80;;;;;;;2.09;90.79;95654.13;6300953;22;20062;-61
2022/03/03 06:28:34;;;;;;;19.13;12.73;;;;;;;2.07;91.34;95651.63;6273635;22;20351;-60
2022/03/03 06:30:59;;;;;;;13.70;11.00;;;;;;;2.09;90.25;95654.13;6299732;22;20148;-60
2022/03/03 06:33:25;;;;;;;16.42;11.85;;;;;;;2.15;89.42;95657.22;6300040;22;20501;-61
2022/03/03 06:35:52;;;;;;;18.42;11.30;;;;;;;2.20;90.09;95653.50;6296781;22;20467;-60
2022/03/03 06:38:17;;;;;;;18.15;10.93;;;;;;;2.21;90.27;95653.41;6300242;22;20027;-60
2022/03/03 06:40:43;;;;;;;12.85;10.32;;;;;;;2.28;90.06;95646.09;6299676;22;20003;-60
2022/03/03 06:43:09;;;;;;;12.70;10.02;;;;;;;2.34;88.48;95647.50;6300427;22;20067;-60
2022/03/03 06:45:35;;;;;;;12.27;10.63;;;;;;;2.41;88.83;95647.00;6300510;22;20003;-62
2022/03/03 06:48:02;;;;;;;15.40;10.73;;;;;;;2.45;88.16;95641.66;6300562;22;19999;-61
2022/03/03 06:50:28;;;;;;;12.13;10.52;;;;;;;2.48;88.13;95649.25;6300817;22;20003;-54
2022/03/03 06:52:54;;;;;;;14.20;11.80;;;;;;;2.53;88.31;95648.03;6300116;22;20034;-53
2022/03/03 06:55:25;;;;;;;15.52;11.75;;;;;;;2.57;89.50;95646.09;6300768;22;19999;-52
2022/03/03 06:57:54;;;;;;;18.33;13.13;;;;;;;2.63;89.28;95642.28;6300709;22;20007;-55
2022/03/03 07:00:22;;;;;;;13.55;12.18;;;;;;;2.73;88.76;95645.97;6298777;22;20015;-52
2022/03/03 07:02:48;;;;;;;15.82;11.15;;;;;;;2.85;88.39;95642.63;6271426;22;20503;-54
2022/03/03 07:05:16;;;;;;;17.70;12.07;;;;;;;2.94;88.05;95649.03;6299241;22;20006;-49
2022/03/03 07:07:44;;;;;;;13.88;12.27;;;;;;;3.06;87.65;95644.81;6298492;22;20462;-56
2022/03/03 07:10:14;;;;;;;16.88;14.20;;;;;;;3.18;87.66;95647.56;6299218;22;20143;-54
2022/03/03 07:12:41;;;;;;;21.13;18.85;;;;;;;3.24;86.92;95642.81;6300004;22;19999;-52
2022/03/03 07:15:08;;;;;;;20.30;18.20;;;;;;;3.34;86.80;95640.44;6299473;22;20356;-54
2022/03/03 07:17:56;;;;;;;17.48;15.23;;;;;;;3.45;86.80;95631.94;6300251;22;20003;-51
2022/03/03 07:20:36;;;;;;;18.80;14.57;;;;;;;3.64;85.32;95641.97;6299664;22;20003;-52
2022/03/03 07:23:17;;;;;;;21.08;15.05;;;;;;;3.96;83.07;95641.63;6299392;22;20003;-55
2022/03/03 07:25:48;;;;;;;25.42;17.13;;;;;;;4.12;81.49;95636.22;6300197;22;20396;-55
2022/03/03 07:28:14;;;;;;;20.95;15.23;;;;;;;4.37;80.35;95633.72;6300284;22;20087;-54
2022/03/03 07:30:42;;;;;;;39.80;23.95;;;;;;;4.39;80.27;95634.47;6299718;22;20003;-49
2022/03/03 07:33:17;;;;;;;34.83;21.05;;;;;;;4.43;78.45;95631.53;6300168;22;20026;-54
2022/03/03 07:35:48;;;;;;;24.83;18.58;;;;;;;4.55;78.50;95629.03;6300157;22;20061;-52
2022/03/03 07:38:19;;;;;;;31.92;19.58;;;;;;;4.72;78.57;95636.50;6300167;22;20007;-56
2022/03/03 07:40:44;;;;;;;28.92;19.30;;;;;;;4.85;78.83;95636.47;6300391;22;20003;-51
2022/03/03 07:43:12;;;;;;;27.52;17.98;;;;;;;4.90;78.59;95636.16;6300122;22;19999;-52
2022/03/03 07:45:39;;;;;;;25.55;15.85;;;;;;;4.91;78.80;95647.41;6300443;22;19999;-52
2022/03/03 07:48:05;;;;;;;22.52;15.30;;;;;;;5.01;79.00;95643.22;6299666;22;20503;-53
2022/03/03 07:50:30;;;;;;;23.40;14.90;;;;;;;5.08;77.71;95641.00;6299952;22;19999;-51
2022/03/03 07:52:56;;;;;;;19.65;14.38;;;;;;;5.18;77.57;95633.34;6300143;22;20006;-49
2022/03/03 07:55:22;;;;;;;16.60;13.07;;;;;;;5.35;76.61;95634.75;6300291;22;20055;-53
2022/03/03 07:57:58;;;;;;;11.18;9.50;;;;;;;5.41;75.92;95642.97;6300008;22;20003;-52
2022/03/03 08:00:27;;;;;;;10.27;9.18;;;;;;;5.45;76.49;95638.34;6299934;22;20067;-54
2022/03/03 08:02:53;;;;;;;13.63;9.23;;;;;;;5.51;76.74;95642.31;6299408;22;20011;-49
2022/03/03 08:05:21;;;;;;;14.70;11.32;;;;;;;5.49;76.35;95639.78;6301261;22;20007;-50
2022/03/03 08:07:48;;;;;;;22.27;12.85;;;;;;;5.60;75.63;95641.63;6301633;22;20010;-49
2022/03/03 08:10:15;;;;;;;17.33;13.13;;;;;;;5.77;74.72;95642.16;6301468;22;20015;-50
2022/03/03 08:12:42;;;;;;;18.52;13.32;;;;;;;5.97;73.59;95649.34;6301696;22;20339;-53
2022/03/03 08:15:10;;;;;;;23.00;15.80;;;;;;;6.35;72.81;95641.41;6301616;22;20096;-54
2022/03/03 08:17:36;;;;;;;15.20;12.00;;;;;;;6.37;71.41;95647.34;6301680;22;20031;-51
2022/03/03 08:20:07;;;;;;;20.48;11.02;;;;;;;6.43;68.47;95645.09;6301659;22;20007;-49
2022/03/03 08:22:34;;;;;;;14.70;9.23;;;;;;;6.48;67.54;95651.75;6301606;22;20078;-50
2022/03/03 08:25:00;;;;;;;9.88;8.35;;;;;;;6.92;66.83;95646.63;6301570;22;20003;-53
2022/03/03 08:27:26;;;;;;;11.38;9.52;;;;;;;6.97;67.93;95641.88;6300832;22;20103;-52
2022/03/03 08:29:54;;;;;;;14.43;9.93;;;;;;;7.53;66.16;95638.31;6301473;22;20477;-53
2022/03/03 08:32:21;;;;;;;10.77;9.27;;;;;;;7.83;64.44;95639.38;6301388;22;20000;-51
2022/03/03 08:34:57;;;;;;;15.18;9.40;;;;;;;7.94;63.85;95630.63;6301591;22;20070;-52
2022/03/03 08:37:29;;;;;;;;;;;;;;;8.00;63.40;95634.53;6302025;22;20003;-49
2022/03/03 08:40:00;;;;;;;10.57;9.05;;;;;;;8.06;62.67;95634.00;6301610;22;19907;-53
2022/03/03 08:42:30;;;;;;;14.55;9.40;;;;;;;8.26;61.95;95624.44;6301599;22;20442;-52
2022/03/03 08:45:02;;;;;;;15.73;9.60;;;;;;;8.37;61.14;95625.34;6301363;22;19999;-53
2022/03/03 08:47:29;;;;;;;13.57;10.73;;;;;;;8.70;60.97;95620.84;6301601;22;20004;-52
2022/03/03 08:50:05;;;;;;;13.93;11.50;;;;;;;8.82;60.94;95614.53;6301416;22;20014;-52
2022/03/03 08:52:31;;;;;;;12.68;11.23;;;;;;;9.06;59.99;95616.00;6301631;22;20003;-53
2022/03/03 08:54:56;;;;;;;10.85;9.80;;;;;;;9.00;59.49;95619.16;6300990;22;20055;-54
2022/03/03 08:57:22;;;;;;;11.38;10.25;;;;;;;8.78;59.83;95614.94;6301494;22;20007;-52
2022/03/03 08:59:47;;;;;;;12.38;10.25;;;;;;;8.91;58.67;95610.28;6301302;22;20423;-53
2022/03/03 09:02:16;;;;;;;13.88;12.20;;;;;;;8.25;60.28;95612.31;6301381;22;20007;-55
2022/03/03 09:04:44;;;;;;;15.85;12.57;;;;;;;8.42;58.32;95607.44;6301299;22;19999;-52
2022/03/03 09:07:09;;;;;;;14.30;11.65;;;;;;;8.19;60.03;95609.38;6301360;22;20007;-53
2022/03/03 09:09:35;;;;;;;21.35;12.10;;;;;;;8.09;60.13;95606.72;6301305;22;20358;-51
2022/03/03 09:12:01;;;;;;;15.13;11.52;;;;;;;7.98;60.22;95608.41;6301153;22;20000;-52
2022/03/03 09:14:27;;;;;;;21.15;11.32;;;;;;;8.25;58.28;95596.56;6300895;22;20004;-54
2022/03/03 09:16:52;;;;;;;17.35;11.20;;;;;;;8.45;59.06;95599.28;6301280;22;20079;-53
2022/03/03 09:19:18;;;;;;;15.30;10.57;;;;;;;8.38;58.33;95592.91;6301383;22;20061;-54
2022/03/03 09:21:44;;;;;;;13.88;11.88;;;;;;;8.29;59.28;95597.16;6301329;22;19999;-53
2022/03/03 09:24:09;;;;;;;12.52;10.30;;;;;;;8.62;57.38;95589.19;6301146;22;20023;-51
2022/03/03 09:26:35;;;;;;;11.80;10.10;;;;;;;8.77;56.49;95589.63;6300985;22;20343;-52
2022/03/03 09:29:00;;;;;;;14.07;10.40;;;;;;;8.93;55.36;95589.13;6301713;22;20082;-50
2022/03/03 09:31:26;;;;;;;14.82;10.48;;;;;;;9.08;54.85;95585.16;6273958;22;20459;-51
2022/03/03 09:33:51;;;;;;;15.82;11.38;;;;;;;9.34;55.76;95584.66;6301138;22;20079;-53
2022/03/03 09:36:18;;;;;;;13.77;10.88;;;;;;;9.44;56.17;95582.88;6301266;22;20000;-52
2022/03/03 09:38:44;;;;;;;13.70;10.18;;;;;;;9.62;54.40;95586.59;6301184;22;20078;-53
2022/03/03 09:41:09;;;;;;;18.80;13.40;;;;;;;9.94;53.91;95583.69;6300976;22;20401;-49
2022/03/03 09:43:34;;;;;;;11.63;10.45;;;;;;;10.04;52.85;95578.41;6301316;22;20056;-51
2022/03/03 09:46:00;;;;;;;15.63;9.60;;;;;;;10.17;50.88;95583.34;6301255;22;20447;-52
2022/03/03 09:48:25;;;;;;;10.85;9.73;;;;;;;10.67;50.40;95579.63;6301251;22;20003;-47
2022/03/03 09:50:51;;;;;;;10.57;9.27;;;;;;;10.89;49.86;95586.31;6300560;22;20495;-51
2022/03/03 09:53:17;;;;;;;9.32;7.95;;;;;;;11.09;44.47;95583.56;6300701;22;20003;-51
2022/03/03 09:55:44;;;;;;;14.90;7.60;;;;;;;11.37;46.40;95572.97;6301138;22;20056;-49
2022/03/03 09:58:10;;;;;;;11.50;8.35;;;;;;;11.66;45.70;95582.50;6300954;22;20434;-51
2022/03/03 10:00:40;;;;;;;9.88;7.35;;;;;;;12.07;42.52;95570.66;6301088;22;20006;-51
2022/03/03 10:03:10;;;;;;;8.90;7.82;;;;;;;12.08;42.81;95573.09;6301110;22;20027;-53
2022/03/03 10:05:47;;;;;;;17.25;8.68;;;;;;;12.51;43.66;95572.38;6301097;22;20367;-48
2022/03/03 10:08:19;;;;;;;9.50;7.57;;;;;;;12.93;41.37;95576.03;6300980;22;20003;-49
2022/03/03 10:10:48;;;;;;;9.48;7.82;;;;;;;13.61;40.01;95568.97;6300956;22;20011;-52
2022/03/03 10:13:17;;;;;;;10.60;8.43;;;;;;;13.42;41.01;95570.91;6301007;22;20007;-51
2022/03/03 10:15:57;;;;;;;14.60;9.73;;;;;;;13.86;41.20;95567.16;6300949;22;19999;-52
2022/03/03 10:18:23;;;;;;;10.65;9.55;;;;;;;13.66;39.57;95568.47;6300981;22;20042;-53
2022/03/03 10:20:55;;;;;;;17.80;9.65;;;;;;;13.01;42.05;95568.16;6301034;22;20007;-52
2022/03/03 10:23:27;;;;;;;10.75;9.55;;;;;;;12.74;43.25;95562.91;6300971;22;19999;-51
2022/03/03 10:25:54;;;;;;;11.77;9.38;;;;;;;13.00;42.03;95566.50;6300620;22;20006;-52
2022/03/03 10:28:24;;;;;;;14.45;10.02;;;;;;;12.85;41.86;95564.44;6300691;22;20010;-51
2022/03/03 10:30:55;;;;;;;11.38;8.68;;;;;;;12.73;42.68;95568.38;6301070;22;20003;-53
2022/03/03 10:33:25;;;;;;;13.07;9.02;;;;;;;13.08;41.12;95563.88;6301165;22;20011;-52
2022/03/03 10:36:12;;;;;;;10.50;8.70;;;;;;;12.69;42.49;95565.22;6301092;22;20026;-53
2022/03/03 10:38:54;;;;;;;12.13;9.57;;;;;;;13.28;41.36;95558.31;6300064;22;20055;-52
2022/03/03 10:41:35;;;;;;;11.18;8.45;;;;;;;13.57;39.91;95567.63;6300938;22;20319;-51
2022/03/03 10:44:12;;;;;;;12.63;9.43;;;;;;;13.11;40.87;95560.09;6301010;22;20413;-53
2022/03/03 10:46:41;;;;;;;9.52;8.60;;;;;;;13.57;39.85;95559.69;6273687;22;20007;-54
2022/03/03 10:49:23;;;;;;;12.95;9.18;;;;;;;13.52;40.31;95554.06;6300751;22;20003;-52
2022/03/03 10:51:49;;;;;;;11.27;8.27;;;;;;;14.16;39.36;95548.94;6300886;22;20074;-52
2022/03/03 10:54:15;;;;;;;11.27;8.77;;;;;;;14.31;37.28;95551.72;6300659;22;20007;-53
2022/03/03 10:56:46;;;;;;;11.73;8.48;;;;;;;14.73;37.40;95543.69;6301163;22;20403;-52
2022/03/03 10:59:21;;;;;;;10.73;8.85;;;;;;;14.79;35.39;95544.81;6300994;22;20375;-54
2022/03/03 11:01:47;;;;;;;13.90;9.68;;;;;;;15.31;35.99;95541.59;6301202;22;20031;-52
2022/03/03 11:04:23;;;;;;;11.35;7.80;;;;;;;15.13;33.69;95538.38;6300666;22;20431;-52
2022/03/03 11:06:49;;;;;;;10.35;8.48;;;;;;;15.81;34.69;95535.13;6299984;22;20007;-52
2022/03/03 11:09:18;;;;;;;10.18;9.00;;;;;;;15.96;35.21;95528.03;6274082;22;20101;-50
2022/03/03 11:11:45;;;;;;;15.32;9.45;;;;;;;16.11;34.10;95522.72;6300683;22;20030;-51
2022/03/03 11:14:11;;;;;;;13.57;8.68;;;;;;;16.03;33.66;95522.81;6300594;22;20006;-50
2022/03/03 11:16:37;;;;;;;10.90;8.27;;;;;;;15.86;35.51;95514.16;6300738;22;20003;-50
2022/03/03 11:19:04;;;;;;;11.68;8.60;;;;;;;15.54;35.21;95500.13;6300421;22;20011;-53
2022/03/03 11:21:29;;;;;;;9.85;7.97;;;;;;;16.04;35.04;95505.88;6300687;22;20007;-53
2022/03/03 11:23:57;;;;;;;15.65;8.48;;;;;;;16.09;35.35;95495.53;6300618;22;20079;-53
2022/03/03 11:26:28;;;;;;;11.25;9.25;;;;;;;16.56;34.58;95501.53;6300537;22;20007;-53